• Join FlightAware (Why Join?)
  • Login
  • US Flag 
12:10AM EDT


 

Airport Tracker/Info


-or-


 

Live Flight TrackerFlight Track Log ✈ SKQ221 ✈ 08-May-2013 ✈ KPWK - KOSU

Flight Track Log - Related Links

Times and Time Zones

All times are in EDT time to prevent confusion due to time zone crossing. See the SKQ221 flight status page for this flight to view local times or setup timezone preferences in your user account.

Time Position Orientation Groundspeed Altitude Reporting Facility
EDT Latitude Longitude Course Direction KTS MPH feet Rate Location/Type
08:56PM 42.1667 -87.8667 37° Northeast 121 139 2,500  Level Chicago TRACON
08:57PM 42.1817 -87.8503 39° Northeast 127 146 2,900 240 Climbing Chicago Center
08:58PM 42.1947 -87.7997 71° East 151 174 3,000  Climbing Chicago Center
08:59PM 42.1883 -87.7289 97° East 177 204 2,900 -60 Descending Chicago Center
09:00PM 42.1853 -87.6592 93° East 186 214 2,900  Level Chicago Center
09:01PM 42.1831 -87.5814 92° East 182 209 3,000 480 Climbing Chicago Center
09:02PM 42.1797 -87.5161 94° East 178 205 3,900 720 Climbing Chicago Center
09:03PM 42.1767 -87.4583 94° East 167 192 4,600 660 Climbing Chicago Center
09:04PM 42.1722 -87.3958 95° East 166 191 5,300 600 Climbing Chicago Center
09:05PM 42.1678 -87.3317 95° East 169 194 5,900 720 Climbing Chicago Center
09:06PM 42.1639 -87.2553 94° East 171 197 6,800 720 Climbing Chicago Center
09:07PM 42.1603 -87.1900 94° East 174 200 7,500 960 Climbing Chicago Center
09:08PM 42.1572 -87.1306 94° East 166 191 8,900 660 Climbing Chicago Center
09:09PM 42.1558 -87.0675 92° East 167 192 8,900 60 Level Chicago Center
09:10PM 42.1319 -86.9978 115° Southeast 196 226 9,100  Climbing Chicago Center
09:11PM 42.0992 -86.9347 125° Southeast 205 236 9,000 -60 Descending Chicago Center
09:12PM 42.0625 -86.8608 124° Southeast 201 231 9,000  Level Chicago Center
09:13PM 42.0314 -86.7992 124° Southeast 200 230 9,000  Level Chicago Center
09:14PM 41.9992 -86.7364 125° Southeast 202 232 9,000  Level Chicago Center
09:15PM 41.9669 -86.6706 123° Southeast 203 234 9,000  Level Chicago Center
09:16PM 41.9358 -86.6081 124° Southeast 201 231 9,000  Level Chicago Center
09:17PM 41.9047 -86.5450 124° Southeast 202 232 9,000  Level Chicago Center
09:18PM 41.8731 -86.4825 124° Southeast 202 232 9,000  Level Chicago Center
09:19PM 41.8425 -86.4200 123° Southeast 201 231 9,000  Level Chicago Center
09:20PM 41.8067 -86.3450 123° Southeast 200 230 9,000  Level Chicago Center
09:21PM 41.7756 -86.2867 126° Southeast 195 224 9,000  Level Chicago Center
09:22PM 41.7461 -86.2264 123° Southeast 193 222 9,100  Climbing Chicago Center
09:23PM 41.7153 -86.1681 125° Southeast 193 222 9,000 -60 Descending Chicago Center
09:25PM 41.6847 -86.1078 124° Southeast 195 224 9,000  Level Chicago Center
09:26PM 41.6542 -86.0469 124° Southeast 197 227 9,000  Level Chicago Center
09:27PM 41.6169 -85.9744 124° Southeast 198 228 9,000  Level Chicago Center
09:28PM 41.5861 -85.9144 124° Southeast 196 226 9,000  Level Chicago Center
09:29PM 41.5558 -85.8536 124° Southeast 199 229 9,000  Level Chicago Center
09:30PM 41.5253 -85.7936 124° Southeast 198 228 9,000  Level Chicago Center
09:31PM 41.4939 -85.7328 125° Southeast 200 230 9,000  Level Chicago Center
09:32PM 41.4633 -85.6722 124° Southeast 199 229 9,000  Level Chicago Center
09:33PM 41.4261 -85.5981 124° Southeast 203 234 9,000  Level Chicago Center
09:34PM 41.3956 -85.5383 124° Southeast 198 228 9,000  Level Chicago Center
09:35PM 41.3639 -85.4775 125° Southeast 201 231 9,000  Level Chicago Center
09:36PM 41.3328 -85.4175 125° Southeast 199 229 9,000  Level Chicago Center
09:37PM 41.3019 -85.3569 124° Southeast 199 229 9,000  Level Chicago Center
09:38PM 41.2653 -85.2861 125° Southeast 196 226 9,000  Level Chicago Center
09:39PM 41.2342 -85.2258 124° Southeast 197 227 9,000  Level Chicago Center
09:40PM 41.2028 -85.1650 124° Southeast 199 229 9,000  Level Chicago Center
09:41PM 41.1711 -85.1044 125° Southeast 201 231 9,000  Level Chicago Center
09:42PM 41.1394 -85.0428 124° Southeast 202 232 9,000  Level Chicago Center
09:43PM 41.1078 -84.9831 125° Southeast 200 230 9,000  Level Chicago Center
09:44PM 41.0750 -84.9219 125° Southeast 203 234 9,000  Level Chicago Center
09:45PM 41.0372 -84.8483 124° Southeast 202 232 9,000  Level Chicago Center
09:46PM 41.0044 -84.7875 126° Southeast 203 234 9,000  Level Chicago Center
09:47PM 40.9717 -84.7258 125° Southeast 205 236 9,000  Level Chicago Center
09:48PM 40.9394 -84.6644 125° Southeast 205 236 9,000  Level Chicago Center
09:49PM 40.9072 -84.6031 125° Southeast 205 236 9,000  Level Chicago Center
09:50PM 40.8750 -84.5422 125° Southeast 204 235 9,100 -60 Climbing Chicago Center
09:51PM 40.8467 -84.4903 126° Southeast 197 227 8,900 -120 Descending Indianapolis Center
09:52PM 40.8153 -84.4306 125° Southeast 195 224 8,900 60 Level Indianapolis Center
09:52PM 40.8072 -84.4128 121° Southeast 197 227 9,000  Climbing Chicago Center
09:53PM 40.7842 -84.3708 126° Southeast 195 224 8,900 -60 Descending Indianapolis Center
09:54PM 40.7519 -84.3122 126° Southeast 195 224 8,900  Level Indianapolis Center
09:55PM 40.7200 -84.2525 125° Southeast 196 226 8,900  Level Indianapolis Center
09:56PM 40.6892 -84.1925 124° Southeast 197 227 8,900  Level Indianapolis Center
09:57PM 40.6561 -84.1333 126° Southeast 198 228 8,900  Level Indianapolis Center
09:58PM 40.6250 -84.0747 125° Southeast 195 224 8,900  Level Indianapolis Center
09:59PM 40.5933 -84.0150 125° Southeast 196 226 8,900  Level Indianapolis Center
10:00PM 40.5608 -83.9550 125° Southeast 199 229 8,900  Level Indianapolis Center
10:01PM 40.5275 -83.8950 126° Southeast 200 230 8,900  Level Indianapolis Center
10:02PM 40.4961 -83.8342 124° Southeast 200 230 9,000  Climbing Indianapolis Center
10:03PM 40.4661 -83.7831 128° Southeast 199 229 9,000  Level Indianapolis Center
10:03PM 40.4583 -83.7642 118° Southeast 200 230 9,000  Level Indianapolis Center
10:04PM 40.4244 -83.7047 127° Southeast 201 231 9,000 -420 Level Indianapolis Center
10:05PM 40.3831 -83.6328 127° Southeast 222 255 8,100 -780 Descending Indianapolis Center
10:06PM 40.3539 -83.5725 122° Southeast 222 255 7,500 -780 Descending Indianapolis Center
10:07PM 40.3181 -83.5058 125° Southeast 223 257 6,600 -780 Descending Indianapolis Center
10:08PM 40.2814 -83.4417 127° Southeast 219 252 6,000 -720 Descending Indianapolis Center
10:09PM 40.2467 -83.3792 126° Southeast 211 243 5,200 -840 Descending Indianapolis Center
10:10PM 40.2097 -83.3186 129° Southeast 211 243 4,300 -960 Descending Indianapolis Center
10:11PM 40.1750 -83.2578 127° Southeast 209 241 3,300 -840 Descending Indianapolis Center
10:12PM 40.1425 -83.1967 125° Southeast 206 237 2,700 -660 Descending Indianapolis Center
10:13PM 40.1125 -83.1386 124° Southeast 198 228 2,000 -360 Descending Indianapolis Center
10:14PM 40.1086 -83.0750 95° East 160 184 2,000 -300 Level Indianapolis Center
10:15PM 40.0967 -83.0353 111° Southeast 141 162 1,500 -480 Descending Indianapolis Center
10:17PM 40.0769 -83.0606 224° Southwest 144 166 1,000 -420 Descending Indianapolis Center